Wrights, IL (62098)

9:52 PM CDT on April 24, 2017 (GMT -0500)
North of Carrollton | | Change Station
Active Advisory: Flood Warning

Elev 584 ft 39.32 °N, 90.42 °W | Updated 13 seconds ago

Clear
Clear
58.6 °F
Feels Like 58.6 °F
N
3.7
Wind Variable Wind from ESE

Today
High -- | Low -- °F
--% Chance of Precip.
Yesterday
High -- | Low -- °F
Precip. -- in
Pressure 29.70 in
Visibility 10.0 miles
Clouds Clear
Dew Point 35 °F
Humidity 41%
Rainfall 0.14 in
Snow Depth Not available.
6:11 AM 7:48 PM
Waning Crescent, 3% visible
METAR KIJX 250235Z AUTO 13006KT 10SM CLR 15/00 A2970 RMK AO2 T01540002
Pressure 29.70 in
Visibility 10.0 miles
Clouds Clear
Dew Point 35 °F
Humidity 41%
Rainfall 0.14 in
Snow Depth Not available.
6:11 AM 7:48 PM
Waning Crescent, 3% visible
METAR KIJX 250235Z AUTO 13006KT 10SM CLR 15/00 A2970 RMK AO2 T01540002

Get Your Daily Forecast Email!

Thanks for signing up!

Be on the lookout for a verification email in your inbox.

You'll start receiving severe weather alerts in your inbox..

×

10-Day Weather Forecast

Almanac

Astronomy

Apr. 24, 2017 Rise Set
Actual Time
Civil Twilight
Nautical Twilight
Astronomical Twilight
Moon
Length of Visible Light
Length of Day
Tomorrow will be .
, % of the Moon is Illuminated

Today's Extremes

State Highs State Lows

Community

WunderPhotos

WunderBlog® & News

Nearby

Air Quality

  Air Quality AQ Index Pollutant
Not available.

Snow Depth

Station Depth Elevation

Earthquake Activity

City Distance Mag. Time & Date
Minimum magnitude displayed is 2.5.

Coastal Water Temperatures

Place Temperature

Stations

Nearby Weather Stations

Station Location Temp. Windchill Dew Point Humidity Wind Precip. Elev Updated Type
                   

Watches & Warnings

Flood Warning
Issued: 9:12 PM CDT Apr. 24, 2017 – National Weather Service

The Flood Warning continues for
the Illinois River at Hardin
* until Thursday evening.
* At 9:00 PM Monday the stage was 25.3 feet.
* Flood stage is 25.0 feet.
* Minor flooding is forecast.
* The river is forecast to continue rising to near feet by after
midnight tonight, then fall below flood stage Wednesday evening.
* Impact: at 25.0 feet... flood stage. Lowland flooding of
unprotected agricultural land begins.
* Impact: at 18.2 feet... at and below this height, barge traffic will
need to consider lowering tonnage to avoid grounding.

                   Fld latest 7 a.M. Forecast
location stg obs stg 04/25 04/26 04/27 04/28 04/29

Illinois River
Hardin 25.0 25.29 25.1 24.9 24.7 24.5 24.3




Lat... Lon 3952 9064 3952 9052 3898 9048 3891 9054
      3903 9062